createdAt,value
2023-02-03T00:00:15.024Z,102419.69
2023-02-03T00:05:18.786Z,102433.59
2023-02-03T00:10:24.240Z,102434.59
2023-02-03T00:15:28.315Z,102429.44
2023-02-03T00:20:32.128Z,102445.84
2023-02-03T00:25:37.854Z,102456.91
2023-02-03T00:30:41.649Z,102457.16
2023-02-03T00:35:45.369Z,102454.69
2023-02-03T00:40:55.051Z,102463.44
2023-02-03T00:45:59.857Z,102468.59
2023-02-03T00:51:03.638Z,102466.91
2023-02-03T00:56:12.672Z,102459.84
2023-02-03T01:01:16.602Z,102454.94
2023-02-03T01:06:21.884Z,102474.66
2023-02-03T01:11:28.644Z,102476.47
2023-02-03T01:16:36.352Z,102484.06
2023-02-03T01:21:40.210Z,102497.84
2023-02-03T01:26:45.281Z,102455.84
2023-02-03T01:31:49.260Z,102444.63
2023-02-03T01:36:53.326Z,102458.44
2023-02-03T01:41:59.793Z,102477.34
2023-02-03T01:47:04.884Z,102449.91
2023-02-03T01:52:08.712Z,102450.44
2023-02-03T01:57:18.576Z,102446.44
2023-02-03T02:02:22.832Z,102445.66
2023-02-03T02:07:27.578Z,102422.22
2023-02-03T02:12:32.682Z,102414.72
2023-02-03T02:17:54.245Z,102411.12
2023-02-03T02:23:23.837Z,102431.88
2023-02-03T02:28:47.666Z,102417.28
2023-02-03T02:34:02.596Z,102418.56
2023-02-03T02:39:13.908Z,102418.44
2023-02-03T02:44:24.098Z,102427.88
2023-02-03T02:49:34.102Z,102428.34
2023-02-03T02:54:42.475Z,102428.34
2023-02-03T02:59:46.544Z,102421.19
2023-02-03T03:04:52.594Z,102419.63
2023-02-03T03:10:01.243Z,102418.31
2023-02-03T03:15:09.311Z,102419.34
2023-02-03T03:20:21.281Z,102406.63
2023-02-03T03:25:31.010Z,102400.00
2023-02-03T03:30:37.643Z,102388.12
2023-02-03T03:35:49.309Z,102399.34
2023-02-03T03:41:00.201Z,102396.53
2023-02-03T03:46:11.168Z,102380.62
2023-02-03T03:51:22.979Z,102366.63
2023-02-03T03:56:29.799Z,102410.13
2023-02-03T04:01:33.851Z,102407.31
2023-02-03T04:06:40.196Z,102404.50
2023-02-03T04:12:01.515Z,102422.44
2023-02-03T04:17:05.856Z,102418.19
2023-02-03T04:22:10.902Z,102425.91
2023-02-03T04:27:14.733Z,102441.25
2023-02-03T04:32:18.480Z,102430.28
2023-02-03T04:37:24.093Z,102427.59
2023-02-03T04:42:28.096Z,102448.22
2023-02-03T04:47:31.801Z,102420.41
2023-02-03T04:52:36.853Z,102426.44
2023-02-03T04:57:40.568Z,102407.75
2023-02-03T05:02:44.276Z,102395.50
2023-02-03T05:07:49.417Z,102408.41
2023-02-03T05:12:53.305Z,102414.44
2023-02-03T05:17:57.266Z,102408.28
2023-02-03T05:23:02.344Z,102410.72
2023-02-03T05:28:06.271Z,102430.44
2023-02-03T05:33:10.071Z,102430.44
2023-02-03T05:38:15.483Z,102434.06
2023-02-03T05:43:19.227Z,102436.50
2023-02-03T05:48:22.955Z,102439.06
2023-02-03T05:53:28.264Z,102428.62
2023-02-03T05:58:32.015Z,102430.44
2023-02-03T06:03:35.733Z,102440.50
2023-02-03T06:08:40.830Z,102431.13
2023-02-03T06:13:44.698Z,102425.81
2023-02-03T06:18:48.386Z,102431.22
2023-02-03T06:23:53.582Z,102436.28
2023-02-03T06:28:57.336Z,102430.19
2023-02-03T06:34:02.595Z,102450.16
2023-02-03T06:39:07.718Z,102444.09
2023-02-03T06:44:11.406Z,102419.13
2023-02-03T06:49:15.121Z,102426.72
2023-02-03T06:54:20.233Z,102429.16
2023-02-03T06:59:23.945Z,102408.53
2023-02-03T07:04:28.423Z,102419.13
2023-02-03T07:09:33.517Z,102420.81
2023-02-03T07:14:39.313Z,102438.94
2023-02-03T07:19:45.106Z,102453.53
2023-02-03T07:24:51.326Z,102466.53
2023-02-03T07:29:55.042Z,102474.16
2023-02-03T07:34:58.749Z,102482.66
2023-02-03T07:40:03.964Z,102480.09
2023-02-03T07:45:08.717Z,102470.00
2023-02-03T07:50:13.271Z,102487.03
2023-02-03T07:55:18.496Z,102478.81
2023-02-03T08:00:22.769Z,102480.72
2023-02-03T08:05:26.485Z,102490.25
2023-02-03T08:10:31.660Z,102496.94
2023-02-03T08:15:35.469Z,102494.50
2023-02-03T08:20:39.247Z,102501.34
2023-02-03T08:25:44.536Z,102510.88
2023-02-03T08:30:48.320Z,102500.69
2023-02-03T08:35:52.271Z,102506.88
2023-02-03T08:40:57.429Z,102508.44
2023-02-03T08:46:04.245Z,102531.19
2023-02-03T08:51:12.192Z,102544.87
2023-02-03T08:56:17.258Z,102546.81
2023-02-03T09:01:21.266Z,102562.00
2023-02-03T09:06:26.278Z,102544.22
2023-02-03T09:11:31.531Z,102559.72
2023-02-03T09:16:35.527Z,102550.66
2023-02-03T09:21:41.868Z,102570.75
2023-02-03T09:26:53.276Z,102553.47
2023-02-03T09:31:57.031Z,102554.19
2023-02-03T09:37:00.856Z,102568.06
2023-02-03T09:42:25.324Z,102575.44
2023-02-03T09:47:33.583Z,102571.16
2023-02-03T09:52:39.340Z,102588.03
2023-02-03T09:57:51.443Z,102587.25
2023-02-03T10:02:59.712Z,102589.41
2023-02-03T10:08:15.396Z,102592.59
2023-02-03T10:13:30.081Z,102587.00
2023-02-03T10:18:41.418Z,102576.38
2023-02-03T10:23:46.604Z,102570.59
2023-02-03T10:28:56.763Z,102587.22
2023-02-03T10:34:02.296Z,102589.16
2023-02-03T10:39:18.562Z,102589.25
2023-02-03T10:44:32.342Z,102594.59
2023-02-03T10:49:36.328Z,102597.75
2023-02-03T10:54:40.095Z,102605.50
2023-02-03T10:59:47.972Z,102594.94
2023-02-03T11:05:09.952Z,102615.28
2023-02-03T11:10:36.079Z,102611.91
2023-02-03T11:15:45.629Z,102613.16
2023-02-03T11:20:49.473Z,102611.25
2023-02-03T11:25:53.519Z,102612.28
2023-02-03T11:31:01.709Z,102622.81
2023-02-03T11:36:05.956Z,102603.63
2023-02-03T11:41:17.338Z,102592.06
2023-02-03T11:46:23.426Z,102581.63
2023-02-03T11:51:41.140Z,102579.72
2023-02-03T11:57:03.684Z,102595.34
2023-02-03T12:02:43.958Z,102598.38
2023-02-03T12:08:10.729Z,102597.72
2023-02-03T12:13:33.595Z,102586.03
2023-02-03T12:18:53.689Z,102589.87
2023-02-03T12:24:04.561Z,102588.19
2023-02-03T12:29:14.493Z,102570.25
2023-02-03T12:34:26.072Z,102606.59
2023-02-03T12:39:32.767Z,102599.50
2023-02-03T12:44:44.384Z,102601.41
2023-02-03T12:49:54.708Z,102599.16
2023-02-03T12:55:08.257Z,102616.47
2023-02-03T13:00:20.136Z,102619.97
2023-02-03T13:05:31.378Z,102620.88
2023-02-03T13:10:40.809Z,102614.81
2023-02-03T13:15:48.929Z,102609.44
2023-02-03T13:20:54.510Z,102625.03
2023-02-03T13:26:23.056Z,102631.78
2023-02-03T13:31:39.526Z,102633.34
2023-02-03T13:37:13.505Z,102644.38
2023-02-03T13:42:24.622Z,102657.00
2023-02-03T13:47:30.256Z,102650.34
2023-02-03T13:52:39.714Z,102658.00
2023-02-03T13:57:43.551Z,102658.91
2023-02-03T14:02:54.596Z,102651.28
2023-02-03T14:07:59.732Z,102651.94
2023-02-03T14:13:04.381Z,102664.97
2023-02-03T14:18:33.053Z,102650.09
2023-02-03T14:23:45.381Z,102649.31
2023-02-03T14:28:53.699Z,102675.06
2023-02-03T14:34:06.142Z,102667.88
2023-02-03T14:39:58.701Z,102661.34
2023-02-03T14:45:14.715Z,102676.94
2023-02-03T14:50:29.866Z,102676.84
2023-02-03T14:55:50.313Z,102671.00
2023-02-03T15:00:55.345Z,102688.97
2023-02-03T15:06:02.496Z,102681.66
2023-02-03T15:11:35.457Z,102687.72
2023-02-03T15:16:39.227Z,102694.47
2023-02-03T15:21:43.337Z,102683.00
2023-02-03T15:26:50.746Z,102692.78
2023-02-03T15:32:01.032Z,102690.09
2023-02-03T15:37:09.575Z,102702.44
2023-02-03T15:42:22.715Z,102710.22
2023-02-03T15:47:33.840Z,102705.22
2023-02-03T15:52:43.514Z,102720.25
2023-02-03T15:57:51.019Z,102727.34
2023-02-03T16:02:58.059Z,102736.53
2023-02-03T16:08:28.538Z,102745.09
2023-02-03T16:13:35.859Z,102741.87
2023-02-03T16:18:39.638Z,102744.16
2023-02-03T16:23:50.749Z,102756.41
2023-02-03T16:29:28.953Z,102763.13
2023-02-03T16:34:49.836Z,102778.72
2023-02-03T16:40:11.182Z,102778.94
2023-02-03T16:45:35.906Z,102784.09
2023-02-03T16:50:52.964Z,102780.13
2023-02-03T16:55:58.912Z,102772.91
2023-02-03T17:01:06.110Z,102782.75
2023-02-03T17:06:12.669Z,102790.13
2023-02-03T17:11:18.359Z,102795.44
2023-02-03T17:16:26.705Z,102796.09
2023-02-03T17:21:31.100Z,102814.69
2023-02-03T17:26:35.119Z,102820.88
2023-02-03T17:31:40.249Z,102832.88
2023-02-03T17:36:44.055Z,102858.06
2023-02-03T17:57:53.592Z,102880.94
2023-02-03T18:02:58.860Z,102895.41
2023-02-03T18:08:09.059Z,102895.25
2023-02-03T18:13:23.369Z,102894.22
2023-02-03T18:18:29.072Z,102908.06
2023-02-03T18:23:33.389Z,102922.16
2023-02-03T18:28:38.031Z,102923.56
2023-02-03T18:33:44.670Z,102923.97
2023-02-03T18:38:49.061Z,102934.94
2023-02-03T18:43:53.201Z,102947.19
2023-02-03T18:48:58.641Z,102957.38
2023-02-03T18:54:03.462Z,102956.63
2023-02-03T18:59:09.472Z,102966.16
2023-02-03T19:04:15.058Z,102970.81
2023-02-03T19:09:20.598Z,102963.31
2023-02-03T19:14:24.721Z,102972.63
2023-02-03T19:19:29.866Z,102980.88
2023-02-03T19:24:33.570Z,102992.22
2023-02-03T19:29:38.954Z,102992.87
2023-02-03T19:34:44.159Z,102996.25
2023-02-03T19:39:50.404Z,103007.22
2023-02-03T19:44:54.162Z,103013.13
2023-02-03T19:49:59.338Z,103005.00
2023-02-03T19:55:03.073Z,103011.59
2023-02-03T20:00:08.495Z,103016.22
2023-02-03T20:05:18.337Z,103021.75
2023-02-03T20:10:22.083Z,103036.34
2023-02-03T20:15:25.892Z,103040.13
2023-02-03T20:20:31.275Z,103045.69
2023-02-03T20:25:35.286Z,103055.75
2023-02-03T20:30:40.060Z,103050.34
2023-02-03T20:35:45.291Z,103051.47
2023-02-03T20:40:49.005Z,103056.81
2023-02-03T20:45:55.848Z,103066.72
2023-02-03T20:51:01.158Z,103079.47
2023-02-03T20:56:12.650Z,103081.78
2023-02-03T21:01:18.996Z,103092.25
2023-02-03T21:06:24.857Z,103087.72
2023-02-03T21:11:30.808Z,103093.50
2023-02-03T21:16:39.380Z,103086.12
2023-02-03T21:21:46.798Z,103084.47
2023-02-03T21:26:50.689Z,103089.31
2023-02-03T21:31:55.760Z,103087.25
2023-02-03T21:37:08.975Z,103093.06
2023-02-03T21:42:40.938Z,103092.47
2023-02-03T21:47:46.684Z,103105.09
2023-02-03T21:52:51.744Z,103104.53
2023-02-03T21:57:55.763Z,103111.09
2023-02-03T22:03:01.222Z,103104.00
2023-02-03T22:08:14.498Z,103111.78
2023-02-03T22:13:20.087Z,103116.22
2023-02-03T22:18:24.353Z,103126.38
2023-02-03T22:23:29.416Z,103130.91
2023-02-03T22:28:33.144Z,103131.69
2023-02-03T22:33:37.125Z,103141.09
2023-02-03T22:38:42.966Z,103145.19
2023-02-03T22:43:46.636Z,103146.44
2023-02-03T22:48:50.349Z,103159.16
2023-02-03T22:53:55.448Z,103159.16
2023-02-03T22:58:59.357Z,103171.56
2023-02-03T23:04:03.134Z,103174.88
2023-02-03T23:09:08.300Z,103177.19
2023-02-03T23:14:12.203Z,103176.13
2023-02-03T23:19:16.397Z,103184.03
2023-02-03T23:24:21.478Z,103182.41
2023-02-03T23:29:25.332Z,103193.31
2023-02-03T23:34:46.689Z,103197.53
2023-02-03T23:39:51.824Z,103198.75
2023-02-03T23:44:55.943Z,103189.53
2023-02-03T23:49:59.692Z,103202.06
2023-02-03T23:55:09.394Z,103200.28
